KCPR/CPR METAR and TAF weather

Enter ICAO airport designator
Station Type Date Time Source
KCPR METAR 2022/06/28 13:53 UTC NOAA

KCPR 281353Z 21003KT 10SM CLR 17/04 A3029 RMK AO2 SLP192 T01720044


Station Type Date Time Source
KCPR Decoded METAR 2022/06/28 13:53 UTC NOAA

NATRONA COUNTY INTERNATIONAL AIRPORT , WY, United States (KCPR) 42-54N 106-28W 1621M
Jun 28, 2022 - 09:53 AM EDT / 2022.06.28 1353 UTC
Wind: from the SSW (210 degrees) at 3 MPH (3 KT):0
Visibility: 10 mile(s):0
Sky conditions: clear
Temperature: 63.0 F (17.2 C)
Dew Point: 39.9 F (4.4 C)
Relative Humidity: 42%
Pressure (altimeter): 30.29 in. Hg (1025 hPa)
ob: KCPR 281353Z 21003KT 10SM CLR 17/04 A3029 RMK AO2 SLP192 T01720044
cycle: 14

Station Type Date Time Source
KCPR TAF 2022/06/28 12:24 UTC NOAA

TAF KCPR 281121Z 2812/2912 VRB05KT P6SM SKC
FM281600 26006KT P6SM SKC
FM282100 28007KT P6SM SCT120
FM290400 24006KT P6SM SCT120 BKN150

Example: see airport list